createdAt,value
2019-04-26T00:00:44.231Z,0.00
2019-04-26T00:01:44.267Z,0.00
2019-04-26T00:02:44.205Z,0.00
2019-04-26T00:03:44.193Z,0.00
2019-04-26T00:04:44.180Z,0.00
2019-04-26T00:05:44.170Z,0.00
2019-04-26T00:06:44.159Z,0.00
2019-04-26T00:07:44.199Z,0.00
2019-04-26T00:08:44.138Z,0.00
2019-04-26T00:09:44.130Z,0.00
2019-04-26T00:10:44.123Z,0.00
2019-04-26T00:11:44.106Z,0.00
2019-04-26T00:12:44.094Z,0.00
2019-04-26T00:13:44.140Z,0.00
2019-04-26T00:14:44.076Z,4.00
2019-04-26T00:15:44.065Z,4.00
2019-04-26T00:16:44.055Z,4.00
2019-04-26T00:17:44.046Z,8.00
2019-04-26T00:18:44.200Z,8.00
2019-04-26T00:19:44.022Z,8.00
2019-04-26T00:20:44.012Z,12.00
2019-04-26T00:21:44.001Z,12.00
2019-04-26T00:22:43.990Z,16.00
2019-04-26T00:23:44.031Z,20.00
2019-04-26T00:24:43.969Z,24.00
2019-04-26T00:25:43.958Z,36.00
2019-04-26T00:26:43.949Z,44.00
2019-04-26T00:27:43.941Z,48.00
2019-04-26T00:28:44.035Z,60.00
2019-04-26T00:29:43.920Z,72.00
2019-04-26T00:30:43.905Z,84.00
2019-04-26T00:31:43.896Z,92.00
2019-04-26T00:32:43.881Z,104.00
2019-04-26T00:33:43.874Z,116.00
2019-04-26T00:34:44.012Z,132.00
2019-04-26T00:35:47.780Z,144.00
2019-04-26T00:36:43.847Z,160.00
2019-04-26T00:37:43.832Z,176.00
2019-04-26T00:38:43.827Z,196.00
2019-04-26T00:39:43.807Z,216.00
2019-04-26T00:40:43.906Z,240.00
2019-04-26T00:41:43.785Z,260.00
2019-04-26T00:42:43.781Z,288.00
2019-04-26T00:43:43.764Z,316.00
2019-04-26T00:44:43.795Z,340.00
2019-04-26T00:45:43.743Z,368.00
2019-04-26T00:46:43.783Z,396.00
2019-04-26T00:47:43.725Z,432.00
2019-04-26T00:48:43.714Z,472.00
2019-04-26T00:49:44.227Z,504.00
2019-04-26T00:50:43.690Z,536.00
2019-04-26T00:51:43.682Z,576.00
2019-04-26T00:52:43.877Z,624.00
2019-04-26T00:53:43.663Z,672.00
2019-04-26T00:54:43.646Z,724.00
2019-04-26T00:55:43.641Z,768.00
2019-04-26T00:56:43.625Z,816.00
2019-04-26T00:57:43.614Z,852.00
2019-04-26T00:58:43.707Z,880.00
2019-04-26T00:59:43.595Z,900.00
2019-04-26T01:00:43.590Z,932.00
2019-04-26T01:01:43.573Z,988.00
2019-04-26T01:02:43.560Z,1052.00
2019-04-26T01:03:43.554Z,1100.00
2019-04-26T01:04:43.591Z,1144.00
2019-04-26T01:05:43.530Z,1168.00
2019-04-26T01:06:43.522Z,1180.00
2019-04-26T01:07:43.507Z,1192.00
2019-04-26T01:08:43.501Z,1248.00
2019-04-26T01:09:43.487Z,1356.00
2019-04-26T01:10:43.626Z,1496.00
2019-04-26T01:11:43.466Z,1692.00
2019-04-26T01:12:43.456Z,1868.00
2019-04-26T01:13:43.447Z,1984.00
2019-04-26T01:14:43.434Z,2036.00
2019-04-26T01:15:43.423Z,2044.00
2019-04-26T01:16:43.461Z,2052.00
2019-04-26T01:17:43.399Z,2084.00
2019-04-26T01:18:43.391Z,2172.00
2019-04-26T01:19:43.379Z,2308.00
2019-04-26T01:20:43.370Z,2488.00
2019-04-26T01:21:43.362Z,2612.00
2019-04-26T01:22:43.400Z,2696.00
2019-04-26T01:23:43.336Z,2744.00
2019-04-26T01:24:43.325Z,2792.00
2019-04-26T01:25:43.319Z,2888.00
2019-04-26T01:26:43.307Z,2944.00
2019-04-26T01:27:43.295Z,2960.00
2019-04-26T01:28:43.437Z,3032.00
2019-04-26T01:29:43.275Z,3188.00
2019-04-26T01:30:43.265Z,3376.00
2019-04-26T01:31:43.254Z,3516.00
2019-04-26T01:32:43.249Z,3656.00
2019-04-26T01:33:43.231Z,3804.00
2019-04-26T01:34:43.321Z,4012.00
2019-04-26T01:35:43.210Z,4176.00
2019-04-26T01:36:43.202Z,4268.00
2019-04-26T01:37:43.191Z,4396.00
2019-04-26T01:38:43.195Z,4496.00
2019-04-26T01:39:43.175Z,4580.00
2019-04-26T01:40:43.260Z,4660.00
2019-04-26T01:41:43.147Z,4804.00
2019-04-26T01:42:43.137Z,4940.00
2019-04-26T01:43:43.125Z,5020.00
2019-04-26T01:44:43.114Z,5088.00
2019-04-26T01:45:43.152Z,5100.00
2019-04-26T01:46:43.092Z,4992.00
2019-04-26T01:47:43.084Z,4788.00
2019-04-26T01:48:43.070Z,4612.00
2019-04-26T01:49:43.058Z,4452.00
2019-04-26T01:50:43.049Z,4456.00
2019-04-26T01:51:43.139Z,4500.00
2019-04-26T01:52:43.028Z,4600.00
2019-04-26T01:53:43.019Z,4700.00
2019-04-26T01:54:43.006Z,4744.00
2019-04-26T01:55:43.000Z,4724.00
2019-04-26T01:56:42.989Z,4612.00
2019-04-26T01:57:43.128Z,4524.00
2019-04-26T01:58:42.965Z,4504.00
2019-04-26T01:59:42.963Z,4520.00
2019-04-26T02:00:42.943Z,4680.00
2019-04-26T02:01:42.938Z,4784.00
2019-04-26T02:02:42.924Z,4548.00
2019-04-26T02:03:43.013Z,4416.00
2019-04-26T02:04:42.907Z,4368.00
2019-04-26T02:05:42.890Z,4288.00
2019-04-26T02:06:42.881Z,4224.00
2019-04-26T02:07:42.872Z,4216.00
2019-04-26T02:08:42.858Z,4204.00
2019-04-26T02:09:42.903Z,4168.00
2019-04-26T02:10:42.841Z,4148.00
2019-04-26T02:11:42.826Z,4080.00
2019-04-26T02:12:42.819Z,4056.00
2019-04-26T02:13:42.809Z,4096.00
2019-04-26T02:14:42.797Z,4164.00
2019-04-26T02:15:42.934Z,4316.00
2019-04-26T02:16:42.772Z,4552.00
2019-04-26T02:17:42.764Z,4772.00
2019-04-26T02:18:42.749Z,5140.00
2019-04-26T02:19:42.745Z,5672.00
2019-04-26T02:20:42.732Z,6264.00
2019-04-26T02:21:42.775Z,6636.00
2019-04-26T02:22:42.708Z,6936.00
2019-04-26T02:23:42.700Z,7084.00
2019-04-26T02:24:42.690Z,8896.00
2019-04-26T02:25:42.673Z,6812.00
2019-04-26T02:26:42.767Z,6972.00
2019-04-26T02:27:42.654Z,7216.00
2019-04-26T02:28:42.645Z,7340.00
2019-04-26T02:29:42.630Z,7632.00
2019-04-26T02:30:42.626Z,8004.00
2019-04-26T02:31:42.620Z,8272.00
2019-04-26T02:32:42.651Z,8292.00
2019-04-26T02:33:42.593Z,8348.00
2019-04-26T02:34:42.583Z,8724.00
2019-04-26T02:35:42.569Z,9148.00
2019-04-26T02:36:57.182Z,9012.00
2019-04-26T02:37:43.694Z,9864.00
2019-04-26T02:38:42.537Z,13000.00
2019-04-26T02:39:42.541Z,11360.00
2019-04-26T02:40:42.525Z,11116.00
2019-04-26T02:41:42.513Z,10816.00
2019-04-26T02:42:42.499Z,11500.00
2019-04-26T02:44:42.624Z,12400.00
2019-04-26T02:45:42.464Z,12228.00
2019-04-26T02:46:42.451Z,11024.00
2019-04-26T02:47:42.449Z,10488.00
2019-04-26T02:48:42.435Z,10316.00
2019-04-26T02:49:42.424Z,10200.00
2019-04-26T02:50:42.509Z,9984.00
2019-04-26T02:51:42.403Z,10004.00
2019-04-26T02:52:42.413Z,10204.00
2019-04-26T02:53:42.381Z,10280.00
2019-04-26T02:54:42.374Z,10208.00
2019-04-26T02:55:42.803Z,9676.00
2019-04-26T02:56:42.398Z,9512.00
2019-04-26T02:57:42.336Z,9672.00
2019-04-26T02:58:42.326Z,10716.00
2019-04-26T02:59:42.320Z,12008.00
2019-04-26T03:00:42.309Z,12216.00
2019-04-26T03:01:42.294Z,11552.00
2019-04-26T03:02:42.433Z,10872.00
2019-04-26T03:03:42.279Z,10468.00
2019-04-26T03:04:42.268Z,10520.00
2019-04-26T03:05:42.254Z,10932.00
2019-04-26T03:06:42.832Z,11248.00
2019-04-26T03:07:42.825Z,17320.00
2019-04-26T03:08:42.763Z,10612.00
2019-04-26T03:09:43.211Z,9672.00
2019-04-26T03:10:43.498Z,9320.00
2019-04-26T03:11:43.372Z,9108.00
2019-04-26T03:12:43.169Z,8972.00
2019-04-26T03:13:43.580Z,8892.00
2019-04-26T03:14:42.208Z,8912.00
2019-04-26T03:15:42.682Z,9108.00
2019-04-26T03:16:42.938Z,9304.00
2019-04-26T03:17:43.045Z,9348.00
2019-04-26T03:18:43.059Z,10252.00
2019-04-26T03:19:43.103Z,9428.00
2019-04-26T03:20:42.343Z,9308.00
2019-04-26T03:21:43.339Z,9832.00
2019-04-26T03:22:42.673Z,15788.00
2019-04-26T03:23:56.969Z,15856.00
2019-04-26T03:25:06.862Z,9104.00
2019-04-26T03:26:06.906Z,11080.00
2019-04-26T03:27:06.845Z,13948.00
2019-04-26T03:28:06.834Z,9636.00
2019-04-26T03:29:06.819Z,24096.00
2019-04-26T03:30:19.791Z,24512.00
2019-04-26T03:31:36.294Z,10840.00
2019-04-26T03:32:39.130Z,11272.00
2019-04-26T03:33:56.604Z,13092.00
2019-04-26T03:34:56.585Z,19544.00
2019-04-26T03:35:58.267Z,13928.00
2019-04-26T03:36:56.631Z,12968.00
2019-04-26T03:37:56.462Z,12248.00
2019-04-26T03:38:56.452Z,12876.00
2019-04-26T03:39:56.442Z,11796.00
2019-04-26T03:40:56.438Z,11968.00
2019-04-26T03:41:56.472Z,13048.00
2019-04-26T03:42:56.408Z,11836.00
2019-04-26T03:43:56.457Z,11388.00
2019-04-26T03:44:56.386Z,10156.00
2019-04-26T03:45:56.386Z,9520.00
2019-04-26T03:46:56.412Z,9060.00
2019-04-26T03:47:56.357Z,8932.00
2019-04-26T03:48:56.344Z,8892.00
2019-04-26T03:49:56.333Z,9064.00
2019-04-26T03:50:56.322Z,8812.00
2019-04-26T03:51:56.311Z,8484.00
2019-04-26T03:52:56.450Z,8260.00
2019-04-26T03:53:56.310Z,7992.00
2019-04-26T03:54:56.292Z,7720.00
2019-04-26T03:55:56.272Z,7496.00
2019-04-26T03:56:56.262Z,7984.00
2019-04-26T03:57:56.246Z,9296.00
2019-04-26T03:58:56.284Z,9120.00
2019-04-26T03:59:56.223Z,10444.00
2019-04-26T04:00:56.213Z,15472.00
2019-04-26T04:01:56.205Z,19148.00
2019-04-26T04:02:56.201Z,13360.00
2019-04-26T04:03:56.192Z,11032.00
2019-04-26T04:04:56.274Z,10408.00
2019-04-26T04:05:56.160Z,9584.00
2019-04-26T04:07:03.627Z,8772.00
2019-04-26T04:08:20.951Z,7860.00
2019-04-26T04:09:20.950Z,7624.00
2019-04-26T04:10:21.079Z,7300.00
2019-04-26T04:11:20.995Z,7256.00
2019-04-26T04:12:21.001Z,7484.00
2019-04-26T04:13:20.910Z,7704.00
2019-04-26T04:14:21.059Z,8040.00
2019-04-26T04:15:20.896Z,8836.00
2019-04-26T04:16:20.928Z,8144.00
2019-04-26T04:17:20.863Z,7996.00
2019-04-26T04:18:20.850Z,7924.00
2019-04-26T04:19:20.833Z,7720.00
2019-04-26T04:20:20.822Z,7504.00
2019-04-26T04:21:20.864Z,7372.00
2019-04-26T04:22:20.807Z,7356.00
2019-04-26T04:23:20.790Z,7592.00
2019-04-26T04:24:20.781Z,7984.00
2019-04-26T04:25:20.771Z,7464.00
2019-04-26T04:26:20.910Z,7560.00
2019-04-26T04:27:20.754Z,7076.00
2019-04-26T04:28:20.739Z,6352.00
2019-04-26T04:29:20.726Z,6400.00
2019-04-26T04:30:20.727Z,7068.00
2019-04-26T04:31:20.707Z,8028.00
2019-04-26T04:32:20.756Z,9524.00
2019-04-26T04:33:20.689Z,8040.00
2019-04-26T04:34:20.695Z,6972.00
2019-04-26T04:35:20.668Z,7044.00
2019-04-26T04:36:20.652Z,7536.00
2019-04-26T04:37:20.644Z,8032.00
2019-04-26T04:38:20.682Z,8624.00
2019-04-26T04:39:20.619Z,9260.00
2019-04-26T04:40:20.610Z,8796.00
2019-04-26T04:41:20.599Z,9028.00
2019-04-26T04:42:20.610Z,9384.00
2019-04-26T04:43:20.694Z,9616.00
2019-04-26T04:44:20.616Z,9348.00
2019-04-26T04:45:20.603Z,10320.00
2019-04-26T04:46:20.733Z,10232.00
2019-04-26T04:47:25.598Z,9428.00
2019-04-26T04:48:20.655Z,8960.00
2019-04-26T04:49:20.525Z,8948.00
2019-04-26T04:50:20.558Z,9112.00
2019-04-26T04:51:20.492Z,9568.00
2019-04-26T04:52:20.478Z,9836.00
2019-04-26T04:53:20.472Z,9964.00
2019-04-26T04:54:20.466Z,10328.00
2019-04-26T04:55:20.452Z,10288.00
2019-04-26T04:56:20.590Z,10124.00
2019-04-26T04:57:20.433Z,10060.00
2019-04-26T04:58:20.524Z,10148.00
2019-04-26T04:59:20.406Z,10384.00
2019-04-26T05:00:20.397Z,10224.00
2019-04-26T05:01:20.390Z,10100.00
2019-04-26T05:02:20.476Z,9960.00
2019-04-26T05:03:20.365Z,9964.00
2019-04-26T05:04:20.353Z,9796.00
2019-04-26T05:05:20.344Z,9652.00
2019-04-26T05:06:20.335Z,9608.00
2019-04-26T05:07:20.325Z,9636.00
2019-04-26T05:08:20.362Z,10064.00
2019-04-26T05:09:20.300Z,10352.00
2019-04-26T05:10:20.296Z,10920.00
2019-04-26T05:11:20.292Z,11380.00
2019-04-26T05:12:20.266Z,11312.00
2019-04-26T05:13:20.287Z,11432.00
2019-04-26T05:14:20.499Z,11512.00
2019-04-26T05:15:20.235Z,11520.00
2019-04-26T05:16:20.225Z,11272.00
2019-04-26T05:17:20.224Z,11324.00
2019-04-26T05:18:20.208Z,10984.00
2019-04-26T05:19:20.195Z,10572.00
2019-04-26T05:21:20.220Z,10908.00
2019-04-26T05:22:20.169Z,10820.00
2019-04-26T05:23:20.149Z,10420.00
2019-04-26T05:24:20.144Z,10604.00
2019-04-26T05:25:20.130Z,10664.00
2019-04-26T05:26:20.126Z,10312.00
2019-04-26T05:27:20.157Z,10540.00
2019-04-26T05:28:20.100Z,11372.00
2019-04-26T05:29:20.089Z,12488.00
2019-04-26T05:30:20.082Z,12364.00
2019-04-26T05:31:20.118Z,11276.00
2019-04-26T05:32:20.084Z,10416.00
2019-04-26T05:33:20.200Z,10816.00
2019-04-26T05:34:20.037Z,12120.00
2019-04-26T05:35:20.024Z,13020.00
2019-04-26T05:36:20.019Z,12936.00
2019-04-26T05:37:20.009Z,12324.00
2019-04-26T05:38:19.993Z,11316.00
2019-04-26T05:39:20.029Z,10960.00
2019-04-26T05:40:19.973Z,11220.00
2019-04-26T05:41:19.959Z,11552.00
2019-04-26T05:42:19.951Z,11252.00
2019-04-26T05:43:19.940Z,11540.00
2019-04-26T05:44:20.033Z,12188.00
2019-04-26T05:45:19.927Z,12516.00
2019-04-26T05:46:19.917Z,12580.00
2019-04-26T05:47:19.902Z,12500.00
2019-04-26T05:48:19.895Z,12324.00
2019-04-26T05:49:19.883Z,12296.00
2019-04-26T05:50:20.121Z,12280.00
2019-04-26T05:51:19.868Z,12060.00
2019-04-26T05:52:19.849Z,11816.00
2019-04-26T05:53:19.843Z,11660.00
2019-04-26T05:54:19.834Z,11768.00
2019-04-26T05:55:19.828Z,11996.00
2019-04-26T05:56:19.859Z,12228.00
2019-04-26T05:57:19.795Z,12548.00
2019-04-26T05:58:19.792Z,12892.00
2019-04-26T05:59:19.780Z,13096.00
2019-04-26T06:00:19.768Z,13184.00
2019-04-26T06:01:19.761Z,13236.00
2019-04-26T06:02:19.849Z,13040.00
2019-04-26T06:03:19.740Z,13100.00
2019-04-26T06:04:19.727Z,13360.00
2019-04-26T06:05:19.716Z,13672.00
2019-04-26T06:06:19.713Z,13832.00
2019-04-26T06:07:19.694Z,14156.00
2019-04-26T06:08:30.697Z,14636.00
2019-04-26T06:09:20.774Z,15052.00
2019-04-26T06:10:19.666Z,15032.00
2019-04-26T06:11:19.684Z,14720.00
2019-04-26T06:12:19.697Z,14276.00
2019-04-26T06:13:19.642Z,14076.00
2019-04-26T06:14:19.677Z,13960.00
2019-04-26T06:15:19.619Z,13800.00
2019-04-26T06:16:19.613Z,13556.00
2019-04-26T06:17:19.597Z,13324.00
2019-04-26T06:18:19.582Z,13012.00
2019-04-26T06:19:19.574Z,12880.00
2019-04-26T06:20:22.997Z,12632.00
2019-04-26T06:21:19.555Z,12556.00
2019-04-26T06:22:19.543Z,12340.00
2019-04-26T06:23:19.530Z,12372.00
2019-04-26T06:24:19.523Z,12504.00
2019-04-26T06:25:19.523Z,12552.00
2019-04-26T06:26:19.655Z,12488.00
2019-04-26T06:27:19.493Z,12376.00
2019-04-26T06:28:19.480Z,12316.00
2019-04-26T06:29:19.471Z,12496.00
2019-04-26T06:30:19.458Z,12684.00
2019-04-26T06:31:19.450Z,12644.00
2019-04-26T06:32:19.544Z,12440.00
2019-04-26T06:33:19.425Z,12088.00
2019-04-26T06:34:19.416Z,11780.00
2019-04-26T06:35:20.342Z,11476.00
2019-04-26T06:36:19.395Z,11068.00
2019-04-26T06:37:19.394Z,10812.00
2019-04-26T06:38:19.423Z,10728.00
2019-04-26T06:39:19.363Z,10544.00
2019-04-26T06:40:19.354Z,10188.00
2019-04-26T06:41:21.500Z,9668.00
2019-04-26T06:42:19.333Z,9368.00
2019-04-26T06:43:19.324Z,9228.00
2019-04-26T06:44:19.461Z,9212.00
2019-04-26T06:45:19.301Z,9300.00
2019-04-26T06:46:19.292Z,9524.00
2019-04-26T06:47:19.282Z,9808.00
2019-04-26T06:48:19.277Z,10172.00
2019-04-26T06:49:19.260Z,10400.00
2019-04-26T06:50:19.349Z,10512.00
2019-04-26T06:51:24.522Z,10992.00
2019-04-26T06:52:19.230Z,11368.00
2019-04-26T06:53:19.218Z,11248.00
2019-04-26T06:54:19.211Z,11020.00
2019-04-26T06:55:19.196Z,10740.00
2019-04-26T06:56:19.248Z,10948.00
2019-04-26T06:57:19.178Z,10904.00
2019-04-26T06:58:19.168Z,10720.00
2019-04-26T06:59:19.156Z,10612.00
2019-04-26T07:00:19.145Z,10600.00
2019-04-26T07:01:19.145Z,10820.00
2019-04-26T07:02:19.376Z,11212.00
2019-04-26T07:03:19.114Z,11600.00
2019-04-26T07:04:19.106Z,11932.00
2019-04-26T07:05:19.095Z,12192.00
2019-04-26T07:06:19.081Z,12288.00
2019-04-26T07:07:19.072Z,12260.00
2019-04-26T07:08:19.110Z,12296.00
2019-04-26T07:09:19.053Z,12468.00
2019-04-26T07:10:19.045Z,12588.00
2019-04-26T07:11:19.028Z,12596.00
2019-04-26T07:12:19.020Z,12548.00
2019-04-26T07:13:19.006Z,12332.00
2019-04-26T07:14:19.046Z,12084.00
2019-04-26T07:15:28.354Z,11908.00
2019-04-26T07:16:43.795Z,12088.00
2019-04-26T07:17:43.783Z,12220.00
2019-04-26T07:18:43.767Z,12424.00
2019-04-26T07:19:43.912Z,12468.00
2019-04-26T07:20:43.752Z,12764.00
2019-04-26T07:21:43.738Z,12788.00
2019-04-26T07:22:43.724Z,12664.00
2019-04-26T07:23:43.721Z,12368.00
2019-04-26T07:24:43.706Z,12232.00
2019-04-26T07:25:43.745Z,12296.00
2019-04-26T07:26:43.684Z,12372.00
2019-04-26T07:27:43.676Z,12396.00
2019-04-26T07:28:43.660Z,12328.00
2019-04-26T07:29:43.653Z,12284.00
2019-04-26T07:30:43.642Z,12112.00
2019-04-26T07:31:43.689Z,11992.00
2019-04-26T07:32:43.624Z,11984.00
2019-04-26T07:33:43.613Z,11928.00
2019-04-26T07:34:43.604Z,11720.00
2019-04-26T07:35:43.597Z,11604.00
2019-04-26T07:36:43.586Z,11512.00
2019-04-26T07:37:43.819Z,11432.00
2019-04-26T07:38:43.560Z,11192.00
2019-04-26T07:39:43.551Z,11036.00
2019-04-26T07:40:43.545Z,10924.00
2019-04-26T07:41:43.530Z,10836.00
2019-04-26T07:42:43.517Z,10760.00
2019-04-26T07:43:43.556Z,10536.00
2019-04-26T07:44:43.499Z,10304.00
2019-04-26T07:45:43.486Z,10180.00
2019-04-26T07:46:43.477Z,10056.00
2019-04-26T07:47:43.463Z,9804.00
2019-04-26T07:48:43.456Z,9672.00
2019-04-26T07:49:43.493Z,9588.00
2019-04-26T07:50:43.435Z,9576.00
2019-04-26T07:51:43.427Z,9380.00
2019-04-26T07:52:44.088Z,9396.00
2019-04-26T07:53:43.403Z,9564.00
2019-04-26T07:54:43.392Z,9332.00
2019-04-26T07:55:43.531Z,9372.00
2019-04-26T07:56:43.379Z,9424.00
2019-04-26T07:57:43.361Z,10020.00
2019-04-26T07:58:43.353Z,10584.00
2019-04-26T07:59:43.342Z,10984.00
2019-04-26T08:00:44.953Z,10976.00
2019-04-26T08:01:43.369Z,10656.00
2019-04-26T08:02:43.310Z,10292.00
2019-04-26T08:03:43.299Z,10200.00
2019-04-26T08:04:43.286Z,9840.00
2019-04-26T08:05:43.277Z,10160.00
2019-04-26T08:06:43.266Z,10484.00
2019-04-26T08:07:43.309Z,10576.00
2019-04-26T08:08:43.246Z,10580.00
2019-04-26T08:09:46.049Z,10096.00
2019-04-26T08:10:43.225Z,9748.00
2019-04-26T08:11:43.219Z,10004.00
2019-04-26T08:12:43.256Z,10112.00
2019-04-26T08:13:43.190Z,10068.00
2019-04-26T08:14:43.188Z,10128.00
2019-04-26T08:15:43.173Z,10252.00
2019-04-26T08:16:43.166Z,10616.00
2019-04-26T08:17:43.553Z,10668.00
2019-04-26T08:18:43.144Z,10352.00
2019-04-26T08:19:43.130Z,9892.00
2019-04-26T08:20:43.122Z,9440.00
2019-04-26T08:21:47.883Z,9316.00
2019-04-26T08:22:43.100Z,9096.00
2019-04-26T08:24:43.136Z,8884.00
2019-04-26T08:25:43.070Z,8700.00
2019-04-26T08:26:43.059Z,8888.00
2019-04-26T08:27:43.048Z,9100.00
2019-04-26T08:28:43.040Z,9172.00
2019-04-26T08:29:43.030Z,8976.00
2019-04-26T08:30:44.935Z,9224.00
2019-04-26T08:31:43.006Z,8896.00
2019-04-26T08:32:43.004Z,8608.00
2019-04-26T08:33:48.639Z,8644.00
2019-04-26T08:35:14.793Z,8272.00
2019-04-26T08:36:32.639Z,8008.00
2019-04-26T08:37:36.453Z,7996.00
2019-04-26T08:38:32.618Z,8108.00
2019-04-26T08:39:44.811Z,7924.00
2019-04-26T08:40:33.698Z,8128.00
2019-04-26T08:41:35.257Z,8240.00
2019-04-26T08:42:32.576Z,8128.00
2019-04-26T08:43:32.571Z,7880.00
2019-04-26T08:44:34.486Z,7616.00
2019-04-26T08:45:32.544Z,7504.00
2019-04-26T08:46:36.282Z,7508.00
2019-04-26T08:47:32.623Z,7620.00
2019-04-26T08:48:32.522Z,7780.00
2019-04-26T08:49:35.037Z,7676.00
2019-04-26T08:50:57.306Z,7400.00
2019-04-26T08:51:57.529Z,7156.00
2019-04-26T08:52:57.965Z,6908.00
2019-04-26T08:53:57.273Z,6792.00
2019-04-26T08:54:57.263Z,6688.00
2019-04-26T08:55:57.253Z,6676.00
2019-04-26T08:56:57.242Z,6792.00
2019-04-26T08:57:57.234Z,7008.00
2019-04-26T08:58:57.379Z,7204.00
2019-04-26T08:59:57.219Z,7368.00
2019-04-26T09:00:57.203Z,7480.00
2019-04-26T09:01:57.192Z,7456.00
2019-04-26T09:02:57.181Z,7528.00
2019-04-26T09:03:57.229Z,7824.00
2019-04-26T09:04:57.160Z,8076.00
2019-04-26T09:05:57.150Z,8044.00
2019-04-26T09:06:57.144Z,8200.00
2019-04-26T09:07:57.550Z,8476.00
2019-04-26T09:08:57.118Z,8596.00
2019-04-26T09:10:57.149Z,8524.00
2019-04-26T09:11:59.917Z,8360.00
2019-04-26T09:12:57.076Z,8252.00
2019-04-26T09:13:57.066Z,8116.00
2019-04-26T09:14:57.077Z,8216.00
2019-04-26T09:15:57.077Z,8312.00
2019-04-26T09:16:57.188Z,8596.00
2019-04-26T09:17:57.026Z,8768.00
2019-04-26T09:18:59.544Z,8576.00
2019-04-26T09:19:58.285Z,8736.00
2019-04-26T09:20:56.995Z,8708.00
2019-04-26T09:22:00.195Z,8648.00
2019-04-26T09:23:21.887Z,8492.00
2019-04-26T09:24:25.105Z,8152.00
2019-04-26T09:25:22.759Z,7960.00
2019-04-26T09:26:21.923Z,7632.00
2019-04-26T09:27:22.520Z,7536.00
2019-04-26T09:28:21.938Z,7524.00
2019-04-26T09:29:21.826Z,7568.00
2019-04-26T09:30:33.351Z,7560.00
2019-04-26T09:31:50.488Z,7548.00
2019-04-26T09:32:47.709Z,7392.00
2019-04-26T09:33:46.753Z,7320.00
2019-04-26T09:34:46.599Z,7164.00
2019-04-26T09:35:46.580Z,6988.00
2019-04-26T09:36:46.574Z,6756.00
2019-04-26T09:37:46.554Z,6548.00
2019-04-26T09:38:46.547Z,6288.00
2019-04-26T09:39:46.635Z,6080.00
2019-04-26T09:40:46.535Z,6008.00
2019-04-26T09:41:46.513Z,6040.00
2019-04-26T09:42:46.506Z,6384.00
2019-04-26T09:43:46.502Z,7004.00
2019-04-26T09:44:46.583Z,7184.00
2019-04-26T09:45:48.072Z,7432.00
2019-04-26T09:46:48.401Z,7580.00
2019-04-26T09:47:46.450Z,7648.00
2019-04-26T09:48:46.442Z,7628.00
2019-04-26T09:49:46.584Z,7240.00
2019-04-26T09:50:46.421Z,6612.00
2019-04-26T09:51:46.409Z,5988.00
2019-04-26T09:52:46.405Z,5568.00
2019-04-26T09:53:46.393Z,5328.00
2019-04-26T09:54:46.376Z,5036.00
2019-04-26T09:55:46.484Z,4876.00
2019-04-26T09:56:46.359Z,4852.00
2019-04-26T09:57:46.348Z,4904.00
2019-04-26T09:58:46.334Z,4816.00
2019-04-26T09:59:46.327Z,4624.00
2019-04-26T10:00:48.465Z,4420.00
2019-04-26T10:01:46.354Z,4424.00
2019-04-26T10:02:46.289Z,4428.00
2019-04-26T10:03:46.282Z,4300.00
2019-04-26T10:04:46.272Z,4072.00
2019-04-26T10:05:46.263Z,3944.00
2019-04-26T10:06:46.250Z,3948.00
2019-04-26T10:07:46.389Z,3988.00
2019-04-26T10:08:47.093Z,3912.00
2019-04-26T10:09:46.217Z,3760.00
2019-04-26T10:10:46.211Z,3584.00
2019-04-26T10:11:46.196Z,3368.00
2019-04-26T10:12:46.185Z,3148.00
2019-04-26T10:13:46.274Z,2952.00
2019-04-26T10:14:46.516Z,2828.00
2019-04-26T10:15:46.164Z,2764.00
2019-04-26T10:16:46.139Z,2692.00
2019-04-26T10:17:46.463Z,2620.00
2019-04-26T10:18:46.121Z,2568.00
2019-04-26T10:19:46.258Z,2492.00
2019-04-26T10:20:46.095Z,2416.00
2019-04-26T10:21:46.086Z,2376.00
2019-04-26T10:22:46.075Z,2284.00
2019-04-26T10:23:46.065Z,2168.00
2019-04-26T10:24:46.056Z,2072.00
2019-04-26T10:25:47.420Z,2008.00
2019-04-26T10:26:46.033Z,1980.00
2019-04-26T10:27:46.018Z,2036.00
2019-04-26T10:28:46.786Z,2136.00
2019-04-26T10:29:46.001Z,2236.00
2019-04-26T10:30:45.988Z,2368.00
2019-04-26T10:31:47.574Z,2468.00
2019-04-26T10:32:45.965Z,2456.00
2019-04-26T10:33:45.959Z,2340.00
2019-04-26T10:34:47.255Z,2208.00
2019-04-26T10:35:45.935Z,2112.00
2019-04-26T10:36:45.926Z,2036.00
2019-04-26T10:37:48.052Z,1968.00
2019-04-26T10:38:45.902Z,1940.00
2019-04-26T10:39:45.893Z,1956.00
2019-04-26T10:40:45.886Z,2004.00
2019-04-26T10:41:45.870Z,2076.00
2019-04-26T10:42:45.864Z,2156.00
2019-04-26T10:43:46.001Z,2232.00
2019-04-26T10:44:45.839Z,2292.00
2019-04-26T10:45:53.528Z,2336.00
2019-04-26T10:47:10.635Z,2396.00
2019-04-26T10:48:13.932Z,2448.00
2019-04-26T10:49:12.026Z,2512.00
2019-04-26T10:50:10.601Z,2604.00
2019-04-26T10:51:10.586Z,2740.00
2019-04-26T10:52:11.992Z,2852.00
2019-04-26T10:53:10.568Z,2932.00
2019-04-26T10:54:10.559Z,2940.00
2019-04-26T10:55:12.245Z,2888.00
2019-04-26T10:56:10.536Z,2816.00
2019-04-26T10:57:10.525Z,2740.00
2019-04-26T10:58:10.527Z,2688.00
2019-04-26T10:59:11.004Z,2696.00
2019-04-26T11:00:10.490Z,2760.00
2019-04-26T11:02:10.573Z,2980.00
2019-04-26T11:03:10.460Z,3080.00
2019-04-26T11:04:10.454Z,3124.00
2019-04-26T11:05:11.666Z,3136.00
2019-04-26T11:06:35.246Z,3084.00
2019-04-26T11:07:35.290Z,3092.00
2019-04-26T11:08:35.223Z,3168.00
2019-04-26T11:09:35.210Z,3320.00
2019-04-26T11:10:47.663Z,3464.00
2019-04-26T11:11:36.286Z,3524.00
2019-04-26T11:12:35.338Z,3532.00
2019-04-26T11:13:35.170Z,3508.00
2019-04-26T11:14:35.161Z,3468.00
2019-04-26T11:15:35.143Z,3416.00
2019-04-26T11:16:37.260Z,3424.00
2019-04-26T11:17:35.127Z,3492.00
2019-04-26T11:18:35.217Z,3616.00
2019-04-26T11:19:35.530Z,3820.00
2019-04-26T11:20:35.095Z,4160.00
2019-04-26T11:21:35.081Z,4620.00
2019-04-26T11:22:37.639Z,5120.00
2019-04-26T11:23:35.058Z,5552.00
2019-04-26T11:24:35.149Z,5828.00
2019-04-26T11:25:35.039Z,5916.00
2019-04-26T11:26:36.248Z,5884.00
2019-04-26T11:27:35.017Z,5820.00
2019-04-26T11:28:35.007Z,5716.00
2019-04-26T11:29:34.994Z,5592.00
2019-04-26T11:30:35.132Z,5456.00
2019-04-26T11:31:34.978Z,5244.00
2019-04-26T11:32:36.780Z,5004.00
2019-04-26T11:33:44.429Z,4780.00
2019-04-26T11:34:36.040Z,4624.00
2019-04-26T11:35:34.985Z,4432.00
2019-04-26T11:36:37.633Z,4240.00
2019-04-26T11:37:59.788Z,4060.00
2019-04-26T11:39:01.397Z,4024.00
2019-04-26T11:39:59.700Z,4040.00
2019-04-26T11:41:06.191Z,4008.00
2019-04-26T11:42:00.825Z,3892.00
2019-04-26T11:42:59.669Z,3832.00
2019-04-26T11:43:59.657Z,3800.00
2019-04-26T11:45:06.021Z,3816.00
2019-04-26T11:46:29.108Z,3780.00
2019-04-26T11:47:24.497Z,3820.00
2019-04-26T11:48:25.502Z,3700.00
2019-04-26T11:49:24.424Z,3564.00
2019-04-26T11:50:24.416Z,3492.00
2019-04-26T11:51:27.560Z,3536.00
2019-04-26T11:52:24.392Z,3528.00
2019-04-26T11:53:24.432Z,3608.00
2019-04-26T11:54:24.371Z,3872.00
2019-04-26T11:55:25.414Z,4112.00
2019-04-26T11:56:24.359Z,4220.00
2019-04-26T11:57:24.342Z,4264.00
2019-04-26T11:58:24.494Z,4240.00
2019-04-26T11:59:27.035Z,4076.00
2019-04-26T12:00:49.126Z,3976.00
2019-04-26T12:01:49.114Z,3992.00
2019-04-26T12:02:50.725Z,4052.00
2019-04-26T12:03:51.542Z,4080.00
2019-04-26T12:04:49.721Z,4052.00
2019-04-26T12:05:49.071Z,4028.00
2019-04-26T12:06:49.061Z,4028.00
2019-04-26T12:07:49.057Z,4048.00
2019-04-26T12:08:49.044Z,4064.00
2019-04-26T12:09:49.080Z,4068.00
2019-04-26T12:10:49.018Z,4056.00
2019-04-26T12:12:03.521Z,4036.00
2019-04-26T12:13:13.837Z,4040.00
2019-04-26T12:14:20.099Z,3960.00